sensor_id;sensor_type;location;lat;lon;timestamp;P1;durP1;ratioP1;P2;durP2;ratioP2
57778;SDS011;43608;49.486;9.640;2023-04-25T00:00:01;3.10;;;2.50;;
57778;SDS011;43608;49.486;9.640;2023-04-25T00:00:33;2.58;;;2.35;;
57778;SDS011;43608;49.486;9.640;2023-04-25T00:01:04;3.28;;;2.40;;
57778;SDS011;43608;49.486;9.640;2023-04-25T00:01:38;3.53;;;2.30;;
57778;SDS011;43608;49.486;9.640;2023-04-25T00:02:09;2.88;;;2.50;;
57778;SDS011;43608;49.486;9.640;2023-04-25T00:02:39;3.25;;;2.40;;
57778;SDS011;43608;49.486;9.640;2023-04-25T00:03:10;3.17;;;2.53;;
57778;SDS011;43608;49.486;9.640;2023-04-25T00:03:40;2.30;;;2.10;;
57778;SDS011;43608;49.486;9.640;2023-04-25T00:04:11;2.55;;;2.28;;
57778;SDS011;43608;49.486;9.640;2023-04-25T00:04:41;2.53;;;2.20;;
57778;SDS011;43608;49.486;9.640;2023-04-25T00:05:12;3.22;;;2.40;;
57778;SDS011;43608;49.486;9.640;2023-04-25T00:05:44;2.83;;;2.40;;
57778;SDS011;43608;49.486;9.640;2023-04-25T00:06:15;3.95;;;2.50;;
57778;SDS011;43608;49.486;9.640;2023-04-25T00:06:46;2.60;;;2.30;;
57778;SDS011;43608;49.486;9.640;2023-04-25T00:07:16;2.78;;;2.40;;
57778;SDS011;43608;49.486;9.640;2023-04-25T00:07:46;2.60;;;2.40;;
57778;SDS011;43608;49.486;9.640;2023-04-25T00:08:17;2.58;;;2.25;;
57778;SDS011;43608;49.486;9.640;2023-04-25T00:08:47;2.33;;;2.13;;
57778;SDS011;43608;49.486;9.640;2023-04-25T00:09:18;3.08;;;2.40;;
57778;SDS011;43608;49.486;9.640;2023-04-25T00:09:49;2.58;;;2.20;;
57778;SDS011;43608;49.486;9.640;2023-04-25T00:10:19;3.67;;;2.45;;
57778;SDS011;43608;49.486;9.640;2023-04-25T00:10:50;3.08;;;2.30;;
57778;SDS011;43608;49.486;9.640;2023-04-25T00:11:21;2.85;;;2.20;;
57778;SDS011;43608;49.486;9.640;2023-04-25T00:11:51;3.38;;;2.45;;
57778;SDS011;43608;49.486;9.640;2023-04-25T00:12:22;2.80;;;2.40;;
57778;SDS011;43608;49.486;9.640;2023-04-25T00:12:52;2.65;;;2.30;;
57778;SDS011;43608;49.486;9.640;2023-04-25T00:13:23;2.70;;;2.20;;
57778;SDS011;43608;49.486;9.640;2023-04-25T00:13:55;3.17;;;2.35;;
57778;SDS011;43608;49.486;9.640;2023-04-25T00:14:25;2.15;;;1.95;;
57778;SDS011;43608;49.486;9.640;2023-04-25T00:14:57;2.38;;;2.10;;
57778;SDS011;43608;49.486;9.640;2023-04-25T00:15:28;2.30;;;2.10;;
57778;SDS011;43608;49.486;9.640;2023-04-25T00:16:00;2.38;;;2.13;;
57778;SDS011;43608;49.486;9.640;2023-04-25T00:16:32;2.03;;;1.83;;
57778;SDS011;43608;49.486;9.640;2023-04-25T00:17:03;2.20;;;2.00;;
57778;SDS011;43608;49.486;9.640;2023-04-25T00:17:34;2.20;;;2.00;;
57778;SDS011;43608;49.486;9.640;2023-04-25T00:18:08;2.30;;;2.10;;
57778;SDS011;43608;49.486;9.640;2023-04-25T00:18:38;2.25;;;1.98;;
57778;SDS011;43608;49.486;9.640;2023-04-25T00:19:09;2.30;;;2.10;;
57778;SDS011;43608;49.486;9.640;2023-04-25T00:19:40;2.65;;;2.10;;
57778;SDS011;43608;49.486;9.640;2023-04-25T00:20:10;2.33;;;2.10;;
57778;SDS011;43608;49.486;9.640;2023-04-25T00:20:41;2.67;;;2.20;;
57778;SDS011;43608;49.486;9.640;2023-04-25T00:21:16;2.63;;;2.20;;
57778;SDS011;43608;49.486;9.640;2023-04-25T00:21:48;2.80;;;2.40;;
57778;SDS011;43608;49.486;9.640;2023-04-25T00:22:19;2.92;;;2.40;;
57778;SDS011;43608;49.486;9.640;2023-04-25T00:22:49;4.13;;;2.40;;
57778;SDS011;43608;49.486;9.640;2023-04-25T00:23:19;2.78;;;2.40;;
57778;SDS011;43608;49.486;9.640;2023-04-25T00:23:50;2.58;;;2.38;;
57778;SDS011;43608;49.486;9.640;2023-04-25T00:24:20;2.90;;;2.17;;
57778;SDS011;43608;49.486;9.640;2023-04-25T00:24:50;2.78;;;2.30;;
57778;SDS011;43608;49.486;9.640;2023-04-25T00:25:23;2.85;;;2.30;;
57778;SDS011;43608;49.486;9.640;2023-04-25T00:25:53;3.75;;;2.40;;
57778;SDS011;43608;49.486;9.640;2023-04-25T00:26:23;4.13;;;2.65;;
57778;SDS011;43608;49.486;9.640;2023-04-25T00:26:54;2.40;;;2.20;;
57778;SDS011;43608;49.486;9.640;2023-04-25T00:27:25;2.75;;;2.20;;
57778;SDS011;43608;49.486;9.640;2023-04-25T00:27:56;2.67;;;2.30;;
57778;SDS011;43608;49.486;9.640;2023-04-25T00:28:27;2.47;;;2.28;;
57778;SDS011;43608;49.486;9.640;2023-04-25T00:28:57;2.80;;;2.40;;
57778;SDS011;43608;49.486;9.640;2023-04-25T00:29:28;2.95;;;2.35;;
57778;SDS011;43608;49.486;9.640;2023-04-25T00:29:58;2.50;;;2.30;;
57778;SDS011;43608;49.486;9.640;2023-04-25T00:30:28;3.75;;;2.60;;
57778;SDS011;43608;49.486;9.640;2023-04-25T00:30:59;3.03;;;2.53;;
57778;SDS011;43608;49.486;9.640;2023-04-25T00:31:30;3.47;;;2.50;;
57778;SDS011;43608;49.486;9.640;2023-04-25T00:32:00;2.60;;;2.40;;
57778;SDS011;43608;49.486;9.640;2023-04-25T00:32:31;2.95;;;2.42;;
57778;SDS011;43608;49.486;9.640;2023-04-25T00:33:02;3.00;;;2.40;;
57778;SDS011;43608;49.486;9.640;2023-04-25T00:33:32;3.17;;;2.47;;
57778;SDS011;43608;49.486;9.640;2023-04-25T00:34:03;5.00;;;2.75;;
57778;SDS011;43608;49.486;9.640;2023-04-25T00:34:33;2.70;;;2.40;;
57778;SDS011;43608;49.486;9.640;2023-04-25T00:35:03;3.47;;;2.40;;
57778;SDS011;43608;49.486;9.640;2023-04-25T00:35:34;2.63;;;2.33;;
57778;SDS011;43608;49.486;9.640;2023-04-25T00:36:05;3.25;;;2.50;;
57778;SDS011;43608;49.486;9.640;2023-04-25T00:36:36;3.33;;;2.75;;
57778;SDS011;43608;49.486;9.640;2023-04-25T00:37:06;3.10;;;2.67;;
57778;SDS011;43608;49.486;9.640;2023-04-25T00:37:37;3.90;;;2.80;;
57778;SDS011;43608;49.486;9.640;2023-04-25T00:38:07;3.40;;;2.88;;
57778;SDS011;43608;49.486;9.640;2023-04-25T00:38:38;3.35;;;2.70;;
57778;SDS011;43608;49.486;9.640;2023-04-25T00:39:08;3.08;;;2.63;;
57778;SDS011;43608;49.486;9.640;2023-04-25T00:39:38;2.90;;;2.50;;
57778;SDS011;43608;49.486;9.640;2023-04-25T00:40:09;4.15;;;3.00;;
57778;SDS011;43608;49.486;9.640;2023-04-25T00:40:40;4.00;;;2.88;;
57778;SDS011;43608;49.486;9.640;2023-04-25T00:41:13;3.30;;;2.80;;
57778;SDS011;43608;49.486;9.640;2023-04-25T00:41:44;4.93;;;3.00;;
57778;SDS011;43608;49.486;9.640;2023-04-25T00:42:15;3.42;;;2.80;;
57778;SDS011;43608;49.486;9.640;2023-04-25T00:42:46;3.40;;;2.75;;
57778;SDS011;43608;49.486;9.640;2023-04-25T00:43:17;3.45;;;2.60;;
57778;SDS011;43608;49.486;9.640;2023-04-25T00:43:48;3.33;;;2.75;;
57778;SDS011;43608;49.486;9.640;2023-04-25T00:44:19;3.38;;;2.65;;
57778;SDS011;43608;49.486;9.640;2023-04-25T00:44:51;3.15;;;2.63;;
57778;SDS011;43608;49.486;9.640;2023-04-25T00:45:23;3.30;;;2.47;;
57778;SDS011;43608;49.486;9.640;2023-04-25T00:45:59;3.22;;;2.60;;
57778;SDS011;43608;49.486;9.640;2023-04-25T00:46:30;3.42;;;2.60;;
57778;SDS011;43608;49.486;9.640;2023-04-25T00:47:01;3.45;;;2.70;;
57778;SDS011;43608;49.486;9.640;2023-04-25T00:47:32;3.50;;;2.92;;
57778;SDS011;43608;49.486;9.640;2023-04-25T00:48:03;3.50;;;2.83;;
57778;SDS011;43608;49.486;9.640;2023-04-25T00:48:34;3.67;;;2.80;;
57778;SDS011;43608;49.486;9.640;2023-04-25T00:49:04;3.97;;;2.88;;
57778;SDS011;43608;49.486;9.640;2023-04-25T00:49:35;4.15;;;2.70;;
57778;SDS011;43608;49.486;9.640;2023-04-25T00:50:05;3.35;;;2.83;;
57778;SDS011;43608;49.486;9.640;2023-04-25T00:50:36;3.40;;;2.60;;
57778;SDS011;43608;49.486;9.640;2023-04-25T00:51:07;3.45;;;2.90;;
57778;SDS011;43608;49.486;9.640;2023-04-25T00:51:37;4.38;;;3.08;;
57778;SDS011;43608;49.486;9.640;2023-04-25T00:52:08;3.28;;;2.78;;
57778;SDS011;43608;49.486;9.640;2023-04-25T00:52:38;3.65;;;2.70;;
57778;SDS011;43608;49.486;9.640;2023-04-25T00:53:10;3.55;;;2.88;;
57778;SDS011;43608;49.486;9.640;2023-04-25T00:53:41;3.47;;;2.88;;
57778;SDS011;43608;49.486;9.640;2023-04-25T00:54:12;4.45;;;2.92;;
57778;SDS011;43608;49.486;9.640;2023-04-25T00:54:43;4.00;;;3.15;;
57778;SDS011;43608;49.486;9.640;2023-04-25T00:55:13;4.15;;;3.00;;
57778;SDS011;43608;49.486;9.640;2023-04-25T00:55:45;3.88;;;3.10;;
57778;SDS011;43608;49.486;9.640;2023-04-25T00:56:16;4.82;;;3.35;;
57778;SDS011;43608;49.486;9.640;2023-04-25T00:56:46;4.60;;;3.22;;
57778;SDS011;43608;49.486;9.640;2023-04-25T00:57:17;4.35;;;3.15;;
57778;SDS011;43608;49.486;9.640;2023-04-25T00:57:50;4.10;;;3.20;;
57778;SDS011;43608;49.486;9.640;2023-04-25T00:58:21;4.05;;;3.22;;
57778;SDS011;43608;49.486;9.640;2023-04-25T00:58:53;3.72;;;3.13;;
57778;SDS011;43608;49.486;9.640;2023-04-25T00:59:27;4.38;;;3.30;;
57778;SDS011;43608;49.486;9.640;2023-04-25T00:59:59;4.18;;;3.30;;
57778;SDS011;43608;49.486;9.640;2023-04-25T01:00:30;3.60;;;3.05;;
57778;SDS011;43608;49.486;9.640;2023-04-25T01:01:01;4.35;;;3.42;;
57778;SDS011;43608;49.486;9.640;2023-04-25T01:01:32;3.72;;;3.05;;
57778;SDS011;43608;49.486;9.640;2023-04-25T01:02:03;3.40;;;3.03;;
57778;SDS011;43608;49.486;9.640;2023-04-25T01:02:34;4.28;;;3.30;;
57778;SDS011;43608;49.486;9.640;2023-04-25T01:03:06;4.30;;;3.28;;
57778;SDS011;43608;49.486;9.640;2023-04-25T01:03:37;3.90;;;3.08;;
57778;SDS011;43608;49.486;9.640;2023-04-25T01:04:10;4.10;;;3.10;;
57778;SDS011;43608;49.486;9.640;2023-04-25T01:04:41;3.80;;;3.33;;
57778;SDS011;43608;49.486;9.640;2023-04-25T01:05:11;4.38;;;3.42;;
57778;SDS011;43608;49.486;9.640;2023-04-25T01:05:42;3.92;;;3.30;;
57778;SDS011;43608;49.486;9.640;2023-04-25T01:06:13;3.97;;;3.10;;
57778;SDS011;43608;49.486;9.640;2023-04-25T01:06:44;3.90;;;3.10;;
57778;SDS011;43608;49.486;9.640;2023-04-25T01:07:15;4.55;;;3.42;;
57778;SDS011;43608;49.486;9.640;2023-04-25T01:07:46;5.22;;;3.45;;
57778;SDS011;43608;49.486;9.640;2023-04-25T01:08:17;4.72;;;3.50;;
57778;SDS011;43608;49.486;9.640;2023-04-25T01:08:47;4.35;;;3.40;;
57778;SDS011;43608;49.486;9.640;2023-04-25T01:09:18;4.38;;;3.42;;
57778;SDS011;43608;49.486;9.640;2023-04-25T01:09:51;4.93;;;3.53;;
57778;SDS011;43608;49.486;9.640;2023-04-25T01:10:22;3.90;;;3.20;;
57778;SDS011;43608;49.486;9.640;2023-04-25T01:10:52;3.60;;;3.08;;
57778;SDS011;43608;49.486;9.640;2023-04-25T01:11:23;4.07;;;3.13;;
57778;SDS011;43608;49.486;9.640;2023-04-25T01:11:53;3.97;;;3.30;;
57778;SDS011;43608;49.486;9.640;2023-04-25T01:12:23;4.03;;;3.25;;
57778;SDS011;43608;49.486;9.640;2023-04-25T01:12:54;4.63;;;3.53;;
57778;SDS011;43608;49.486;9.640;2023-04-25T01:13:24;4.40;;;3.58;;
57778;SDS011;43608;49.486;9.640;2023-04-25T01:13:55;7.30;;;3.55;;
57778;SDS011;43608;49.486;9.640;2023-04-25T01:14:25;4.45;;;3.47;;
57778;SDS011;43608;49.486;9.640;2023-04-25T01:14:56;3.90;;;3.25;;
57778;SDS011;43608;49.486;9.640;2023-04-25T01:15:26;4.07;;;3.40;;
57778;SDS011;43608;49.486;9.640;2023-04-25T01:15:57;3.90;;;3.20;;
57778;SDS011;43608;49.486;9.640;2023-04-25T01:16:28;4.35;;;3.00;;
57778;SDS011;43608;49.486;9.640;2023-04-25T01:16:59;4.25;;;3.50;;
57778;SDS011;43608;49.486;9.640;2023-04-25T01:17:29;4.30;;;3.55;;
57778;SDS011;43608;49.486;9.640;2023-04-25T01:18:01;4.25;;;3.60;;
57778;SDS011;43608;49.486;9.640;2023-04-25T01:18:32;4.40;;;3.60;;
57778;SDS011;43608;49.486;9.640;2023-04-25T01:19:05;4.85;;;3.45;;
57778;SDS011;43608;49.486;9.640;2023-04-25T01:19:41;4.63;;;3.67;;
57778;SDS011;43608;49.486;9.640;2023-04-25T01:20:11;4.57;;;3.78;;
57778;SDS011;43608;49.486;9.640;2023-04-25T01:20:43;4.78;;;3.90;;
57778;SDS011;43608;49.486;9.640;2023-04-25T01:21:15;4.57;;;3.63;;
57778;SDS011;43608;49.486;9.640;2023-04-25T01:21:46;4.40;;;3.75;;
57778;SDS011;43608;49.486;9.640;2023-04-25T01:22:17;5.13;;;3.88;;
57778;SDS011;43608;49.486;9.640;2023-04-25T01:22:47;4.53;;;3.95;;
57778;SDS011;43608;49.486;9.640;2023-04-25T01:23:19;4.10;;;3.60;;
57778;SDS011;43608;49.486;9.640;2023-04-25T01:23:50;4.28;;;3.65;;
57778;SDS011;43608;49.486;9.640;2023-04-25T01:24:21;5.60;;;4.03;;
57778;SDS011;43608;49.486;9.640;2023-04-25T01:24:52;4.85;;;3.83;;
57778;SDS011;43608;49.486;9.640;2023-04-25T01:25:23;5.03;;;3.97;;
57778;SDS011;43608;49.486;9.640;2023-04-25T01:25:53;4.40;;;3.80;;
57778;SDS011;43608;49.486;9.640;2023-04-25T01:26:24;4.40;;;4.00;;
57778;SDS011;43608;49.486;9.640;2023-04-25T01:26:55;5.78;;;4.05;;
57778;SDS011;43608;49.486;9.640;2023-04-25T01:27:26;6.07;;;4.47;;
57778;SDS011;43608;49.486;9.640;2023-04-25T01:27:58;4.72;;;3.60;;
57778;SDS011;43608;49.486;9.640;2023-04-25T01:28:28;5.53;;;3.95;;
57778;SDS011;43608;49.486;9.640;2023-04-25T01:28:59;5.15;;;4.13;;
57778;SDS011;43608;49.486;9.640;2023-04-25T01:29:31;4.35;;;3.90;;
57778;SDS011;43608;49.486;9.640;2023-04-25T01:30:02;4.72;;;3.60;;
57778;SDS011;43608;49.486;9.640;2023-04-25T01:30:34;4.72;;;3.83;;
57778;SDS011;43608;49.486;9.640;2023-04-25T01:31:04;4.43;;;3.53;;
57778;SDS011;43608;49.486;9.640;2023-04-25T01:31:36;4.22;;;3.30;;
57778;SDS011;43608;49.486;9.640;2023-04-25T01:32:07;4.55;;;3.85;;
57778;SDS011;43608;49.486;9.640;2023-04-25T01:32:37;4.80;;;4.05;;
57778;SDS011;43608;49.486;9.640;2023-04-25T01:33:08;5.55;;;3.90;;
57778;SDS011;43608;49.486;9.640;2023-04-25T01:33:39;4.63;;;3.72;;
57778;SDS011;43608;49.486;9.640;2023-04-25T01:34:10;4.38;;;3.78;;
57778;SDS011;43608;49.486;9.640;2023-04-25T01:34:40;5.05;;;4.00;;
57778;SDS011;43608;49.486;9.640;2023-04-25T01:35:11;5.10;;;3.95;;
57778;SDS011;43608;49.486;9.640;2023-04-25T01:35:41;5.25;;;3.97;;
57778;SDS011;43608;49.486;9.640;2023-04-25T01:36:12;4.80;;;3.92;;
57778;SDS011;43608;49.486;9.640;2023-04-25T01:36:44;4.88;;;3.85;;
57778;SDS011;43608;49.486;9.640;2023-04-25T01:37:15;6.03;;;4.60;;
57778;SDS011;43608;49.486;9.640;2023-04-25T01:37:46;4.65;;;3.97;;
57778;SDS011;43608;49.486;9.640;2023-04-25T01:38:17;5.28;;;4.38;;
57778;SDS011;43608;49.486;9.640;2023-04-25T01:38:47;4.97;;;4.20;;
57778;SDS011;43608;49.486;9.640;2023-04-25T01:39:18;4.90;;;3.92;;
57778;SDS011;43608;49.486;9.640;2023-04-25T01:39:48;4.57;;;4.00;;
57778;SDS011;43608;49.486;9.640;2023-04-25T01:40:20;5.00;;;4.13;;
57778;SDS011;43608;49.486;9.640;2023-04-25T01:40:51;7.70;;;4.40;;
57778;SDS011;43608;49.486;9.640;2023-04-25T01:41:23;5.20;;;4.45;;
57778;SDS011;43608;49.486;9.640;2023-04-25T01:41:54;4.95;;;4.10;;
57778;SDS011;43608;49.486;9.640;2023-04-25T01:42:24;4.60;;;3.80;;
57778;SDS011;43608;49.486;9.640;2023-04-25T01:42:55;5.18;;;4.03;;
57778;SDS011;43608;49.486;9.640;2023-04-25T01:43:25;5.15;;;4.00;;
57778;SDS011;43608;49.486;9.640;2023-04-25T01:43:56;4.40;;;3.80;;
57778;SDS011;43608;49.486;9.640;2023-04-25T01:44:27;4.65;;;3.83;;
57778;SDS011;43608;49.486;9.640;2023-04-25T01:44:57;4.38;;;3.83;;
57778;SDS011;43608;49.486;9.640;2023-04-25T01:45:28;4.43;;;3.72;;
57778;SDS011;43608;49.486;9.640;2023-04-25T01:45:58;3.70;;;3.30;;
57778;SDS011;43608;49.486;9.640;2023-04-25T01:46:29;4.65;;;3.72;;
57778;SDS011;43608;49.486;9.640;2023-04-25T01:47:00;4.28;;;3.70;;
57778;SDS011;43608;49.486;9.640;2023-04-25T01:47:31;4.55;;;3.83;;
57778;SDS011;43608;49.486;9.640;2023-04-25T01:48:01;4.10;;;3.45;;
57778;SDS011;43608;49.486;9.640;2023-04-25T01:48:32;4.07;;;3.20;;
57778;SDS011;43608;49.486;9.640;2023-04-25T01:49:02;4.22;;;3.47;;
57778;SDS011;43608;49.486;9.640;2023-04-25T01:49:33;4.07;;;3.58;;
57778;SDS011;43608;49.486;9.640;2023-04-25T01:50:04;4.97;;;3.80;;
57778;SDS011;43608;49.486;9.640;2023-04-25T01:50:36;5.60;;;3.92;;
57778;SDS011;43608;49.486;9.640;2023-04-25T01:51:08;4.18;;;3.38;;
57778;SDS011;43608;49.486;9.640;2023-04-25T01:51:38;4.45;;;3.78;;
57778;SDS011;43608;49.486;9.640;2023-04-25T01:52:09;4.82;;;3.80;;
57778;SDS011;43608;49.486;9.640;2023-04-25T01:52:39;5.03;;;3.67;;
57778;SDS011;43608;49.486;9.640;2023-04-25T01:53:10;4.22;;;3.70;;
57778;SDS011;43608;49.486;9.640;2023-04-25T01:53:43;4.07;;;3.40;;
57778;SDS011;43608;49.486;9.640;2023-04-25T01:54:13;4.57;;;3.80;;
57778;SDS011;43608;49.486;9.640;2023-04-25T01:54:44;5.50;;;3.90;;
57778;SDS011;43608;49.486;9.640;2023-04-25T01:55:14;4.50;;;3.88;;
57778;SDS011;43608;49.486;9.640;2023-04-25T01:55:45;5.20;;;4.00;;
57778;SDS011;43608;49.486;9.640;2023-04-25T01:56:15;4.93;;;3.80;;
57778;SDS011;43608;49.486;9.640;2023-04-25T01:56:50;4.60;;;3.50;;
57778;SDS011;43608;49.486;9.640;2023-04-25T01:57:21;5.15;;;3.90;;
57778;SDS011;43608;49.486;9.640;2023-04-25T01:57:51;4.10;;;3.60;;
57778;SDS011;43608;49.486;9.640;2023-04-25T01:58:22;4.68;;;3.80;;
57778;SDS011;43608;49.486;9.640;2023-04-25T01:58:52;4.32;;;3.38;;
57778;SDS011;43608;49.486;9.640;2023-04-25T01:59:23;4.53;;;3.60;;
57778;SDS011;43608;49.486;9.640;2023-04-25T01:59:58;4.40;;;3.60;;
57778;SDS011;43608;49.486;9.640;2023-04-25T02:00:31;4.10;;;3.35;;
57778;SDS011;43608;49.486;9.640;2023-04-25T02:01:01;4.25;;;3.55;;
57778;SDS011;43608;49.486;9.640;2023-04-25T02:01:32;5.38;;;3.88;;
57778;SDS011;43608;49.486;9.640;2023-04-25T02:02:02;4.32;;;3.67;;
57778;SDS011;43608;49.486;9.640;2023-04-25T02:02:33;4.72;;;3.80;;
57778;SDS011;43608;49.486;9.640;2023-04-25T02:03:04;5.22;;;4.13;;
57778;SDS011;43608;49.486;9.640;2023-04-25T02:03:35;5.57;;;4.07;;
57778;SDS011;43608;49.486;9.640;2023-04-25T02:04:06;5.28;;;4.03;;
57778;SDS011;43608;49.486;9.640;2023-04-25T02:04:36;4.97;;;3.72;;
57778;SDS011;43608;49.486;9.640;2023-04-25T02:05:07;4.32;;;3.92;;
57778;SDS011;43608;49.486;9.640;2023-04-25T02:05:37;5.15;;;3.70;;
57778;SDS011;43608;49.486;9.640;2023-04-25T02:06:09;4.20;;;3.63;;
57778;SDS011;43608;49.486;9.640;2023-04-25T02:06:39;4.00;;;3.38;;
57778;SDS011;43608;49.486;9.640;2023-04-25T02:07:10;4.20;;;3.33;;
57778;SDS011;43608;49.486;9.640;2023-04-25T02:07:40;4.03;;;3.38;;
57778;SDS011;43608;49.486;9.640;2023-04-25T02:08:10;3.83;;;3.10;;
57778;SDS011;43608;49.486;9.640;2023-04-25T02:08:41;3.90;;;3.38;;
57778;SDS011;43608;49.486;9.640;2023-04-25T02:09:11;5.20;;;3.38;;
57778;SDS011;43608;49.486;9.640;2023-04-25T02:09:41;3.75;;;3.28;;
57778;SDS011;43608;49.486;9.640;2023-04-25T02:10:12;5.25;;;3.55;;
57778;SDS011;43608;49.486;9.640;2023-04-25T02:10:42;4.10;;;3.33;;
57778;SDS011;43608;49.486;9.640;2023-04-25T02:11:13;3.90;;;3.15;;
57778;SDS011;43608;49.486;9.640;2023-04-25T02:11:44;4.22;;;3.30;;
57778;SDS011;43608;49.486;9.640;2023-04-25T02:12:14;4.65;;;3.40;;
57778;SDS011;43608;49.486;9.640;2023-04-25T02:12:45;4.13;;;3.50;;
57778;SDS011;43608;49.486;9.640;2023-04-25T02:13:15;4.60;;;3.83;;
57778;SDS011;43608;49.486;9.640;2023-04-25T02:13:46;5.55;;;4.00;;
57778;SDS011;43608;49.486;9.640;2023-04-25T02:14:16;4.47;;;3.88;;
57778;SDS011;43608;49.486;9.640;2023-04-25T02:14:46;4.72;;;4.00;;
57778;SDS011;43608;49.486;9.640;2023-04-25T02:15:17;4.53;;;3.97;;
57778;SDS011;43608;49.486;9.640;2023-04-25T02:15:47;4.30;;;3.72;;
57778;SDS011;43608;49.486;9.640;2023-04-25T02:16:18;4.10;;;3.70;;
57778;SDS011;43608;49.486;9.640;2023-04-25T02:16:48;4.45;;;3.63;;
57778;SDS011;43608;49.486;9.640;2023-04-25T02:17:19;4.65;;;3.85;;
57778;SDS011;43608;49.486;9.640;2023-04-25T02:17:51;5.65;;;3.97;;
57778;SDS011;43608;49.486;9.640;2023-04-25T02:18:24;5.65;;;3.70;;
57778;SDS011;43608;49.486;9.640;2023-04-25T02:18:56;4.13;;;3.60;;
57778;SDS011;43608;49.486;9.640;2023-04-25T02:19:26;4.20;;;3.42;;
57778;SDS011;43608;49.486;9.640;2023-04-25T02:19:56;4.30;;;3.67;;
57778;SDS011;43608;49.486;9.640;2023-04-25T02:20:28;4.35;;;3.70;;
57778;SDS011;43608;49.486;9.640;2023-04-25T02:21:00;4.15;;;3.55;;
57778;SDS011;43608;49.486;9.640;2023-04-25T02:21:31;5.10;;;3.85;;
57778;SDS011;43608;49.486;9.640;2023-04-25T02:22:02;4.60;;;4.07;;
57778;SDS011;43608;49.486;9.640;2023-04-25T02:22:32;4.93;;;3.88;;
57778;SDS011;43608;49.486;9.640;2023-04-25T02:23:03;4.40;;;3.90;;
57778;SDS011;43608;49.486;9.640;2023-04-25T02:23:34;4.18;;;3.67;;
57778;SDS011;43608;49.486;9.640;2023-04-25T02:24:05;4.82;;;3.83;;
57778;SDS011;43608;49.486;9.640;2023-04-25T02:24:36;4.10;;;3.47;;
57778;SDS011;43608;49.486;9.640;2023-04-25T02:25:06;4.25;;;3.60;;
57778;SDS011;43608;49.486;9.640;2023-04-25T02:25:37;4.43;;;3.47;;
57778;SDS011;43608;49.486;9.640;2023-04-25T02:26:08;4.63;;;3.50;;
57778;SDS011;43608;49.486;9.640;2023-04-25T02:26:38;4.40;;;3.58;;
57778;SDS011;43608;49.486;9.640;2023-04-25T02:27:08;4.55;;;3.60;;
57778;SDS011;43608;49.486;9.640;2023-04-25T02:27:39;4.68;;;3.33;;
57778;SDS011;43608;49.486;9.640;2023-04-25T02:28:09;4.10;;;3.50;;
57778;SDS011;43608;49.486;9.640;2023-04-25T02:28:40;3.90;;;3.40;;
57778;SDS011;43608;49.486;9.640;2023-04-25T02:29:10;4.28;;;3.75;;
57778;SDS011;43608;49.486;9.640;2023-04-25T02:29:41;4.35;;;3.78;;
57778;SDS011;43608;49.486;9.640;2023-04-25T02:30:11;4.82;;;3.60;;
57778;SDS011;43608;49.486;9.640;2023-04-25T02:30:42;4.20;;;3.58;;
57778;SDS011;43608;49.486;9.640;2023-04-25T02:31:12;4.70;;;3.70;;
57778;SDS011;43608;49.486;9.640;2023-04-25T02:31:42;4.00;;;3.60;;
57778;SDS011;43608;49.486;9.640;2023-04-25T02:32:13;5.32;;;3.90;;
57778;SDS011;43608;49.486;9.640;2023-04-25T02:32:43;4.30;;;3.80;;
57778;SDS011;43608;49.486;9.640;2023-04-25T02:33:13;4.70;;;3.63;;
57778;SDS011;43608;49.486;9.640;2023-04-25T02:33:47;4.28;;;3.65;;
57778;SDS011;43608;49.486;9.640;2023-04-25T02:34:17;4.28;;;3.63;;
57778;SDS011;43608;49.486;9.640;2023-04-25T02:34:48;4.68;;;3.97;;
57778;SDS011;43608;49.486;9.640;2023-04-25T02:35:18;4.30;;;3.70;;
57778;SDS011;43608;49.486;9.640;2023-04-25T02:35:49;5.65;;;3.60;;
57778;SDS011;43608;49.486;9.640;2023-04-25T02:36:22;3.97;;;3.17;;
57778;SDS011;43608;49.486;9.640;2023-04-25T02:36:53;4.18;;;3.50;;
57778;SDS011;43608;49.486;9.640;2023-04-25T02:37:25;4.50;;;3.75;;
57778;SDS011;43608;49.486;9.640;2023-04-25T02:37:55;4.60;;;3.40;;
57778;SDS011;43608;49.486;9.640;2023-04-25T02:38:25;4.22;;;3.50;;
57778;SDS011;43608;49.486;9.640;2023-04-25T02:38:56;4.20;;;3.40;;
57778;SDS011;43608;49.486;9.640;2023-04-25T02:39:26;4.03;;;3.20;;
57778;SDS011;43608;49.486;9.640;2023-04-25T02:39:57;3.53;;;3.08;;
57778;SDS011;43608;49.486;9.640;2023-04-25T02:40:27;3.40;;;2.97;;
57778;SDS011;43608;49.486;9.640;2023-04-25T02:40:57;3.42;;;3.10;;
57778;SDS011;43608;49.486;9.640;2023-04-25T02:41:28;4.70;;;3.03;;
57778;SDS011;43608;49.486;9.640;2023-04-25T02:41:58;4.68;;;3.33;;
57778;SDS011;43608;49.486;9.640;2023-04-25T02:42:29;4.18;;;3.10;;
57778;SDS011;43608;49.486;9.640;2023-04-25T02:42:59;3.65;;;3.22;;
57778;SDS011;43608;49.486;9.640;2023-04-25T02:43:30;3.70;;;2.95;;
57778;SDS011;43608;49.486;9.640;2023-04-25T02:44:00;4.15;;;2.88;;
57778;SDS011;43608;49.486;9.640;2023-04-25T02:44:31;3.15;;;2.75;;
57778;SDS011;43608;49.486;9.640;2023-04-25T02:45:01;3.53;;;2.80;;
57778;SDS011;43608;49.486;9.640;2023-04-25T02:45:32;3.08;;;2.67;;
57778;SDS011;43608;49.486;9.640;2023-04-25T02:46:03;4.47;;;3.15;;
57778;SDS011;43608;49.486;9.640;2023-04-25T02:46:33;4.30;;;3.05;;
57778;SDS011;43608;49.486;9.640;2023-04-25T02:47:03;4.22;;;3.25;;
57778;SDS011;43608;49.486;9.640;2023-04-25T02:47:34;4.30;;;3.20;;
57778;SDS011;43608;49.486;9.640;2023-04-25T02:48:04;3.50;;;2.90;;
57778;SDS011;43608;49.486;9.640;2023-04-25T02:48:35;3.78;;;3.10;;
57778;SDS011;43608;49.486;9.640;2023-04-25T02:49:06;3.80;;;2.80;;
57778;SDS011;43608;49.486;9.640;2023-04-25T02:49:36;3.50;;;2.83;;
57778;SDS011;43608;49.486;9.640;2023-04-25T02:50:07;3.20;;;2.80;;
57778;SDS011;43608;49.486;9.640;2023-04-25T02:50:37;3.78;;;2.65;;
57778;SDS011;43608;49.486;9.640;2023-04-25T02:51:08;4.05;;;3.20;;
57778;SDS011;43608;49.486;9.640;2023-04-25T02:51:38;2.90;;;2.50;;
57778;SDS011;43608;49.486;9.640;2023-04-25T02:52:08;3.22;;;2.78;;
57778;SDS011;43608;49.486;9.640;2023-04-25T02:52:39;3.28;;;2.75;;
57778;SDS011;43608;49.486;9.640;2023-04-25T02:53:09;2.78;;;2.42;;
57778;SDS011;43608;49.486;9.640;2023-04-25T02:53:40;3.35;;;2.80;;
57778;SDS011;43608;49.486;9.640;2023-04-25T02:54:10;3.67;;;2.80;;
57778;SDS011;43608;49.486;9.640;2023-04-25T02:54:41;3.10;;;2.70;;
57778;SDS011;43608;49.486;9.640;2023-04-25T02:55:12;2.95;;;2.65;;
57778;SDS011;43608;49.486;9.640;2023-04-25T02:55:43;3.58;;;2.88;;
57778;SDS011;43608;49.486;9.640;2023-04-25T02:56:13;3.42;;;2.60;;
57778;SDS011;43608;49.486;9.640;2023-04-25T02:56:43;3.33;;;2.75;;
57778;SDS011;43608;49.486;9.640;2023-04-25T02:57:14;3.10;;;2.70;;
57778;SDS011;43608;49.486;9.640;2023-04-25T02:57:44;2.80;;;2.50;;
57778;SDS011;43608;49.486;9.640;2023-04-25T02:58:15;2.75;;;2.45;;
57778;SDS011;43608;49.486;9.640;2023-04-25T02:58:45;3.20;;;2.53;;
57778;SDS011;43608;49.486;9.640;2023-04-25T02:59:16;3.30;;;2.67;;
57778;SDS011;43608;49.486;9.640;2023-04-25T02:59:46;3.05;;;2.72;;
57778;SDS011;43608;49.486;9.640;2023-04-25T03:00:16;2.92;;;2.45;;
57778;SDS011;43608;49.486;9.640;2023-04-25T03:00:47;3.63;;;2.90;;
57778;SDS011;43608;49.486;9.640;2023-04-25T03:01:17;3.85;;;2.70;;
57778;SDS011;43608;49.486;9.640;2023-04-25T03:01:47;2.63;;;2.40;;
57778;SDS011;43608;49.486;9.640;2023-04-25T03:02:18;3.05;;;2.60;;
57778;SDS011;43608;49.486;9.640;2023-04-25T03:02:48;2.92;;;2.40;;
57778;SDS011;43608;49.486;9.640;2023-04-25T03:03:18;3.20;;;2.60;;
57778;SDS011;43608;49.486;9.640;2023-04-25T03:03:51;2.78;;;2.30;;
57778;SDS011;43608;49.486;9.640;2023-04-25T03:04:21;3.50;;;2.75;;
57778;SDS011;43608;49.486;9.640;2023-04-25T03:04:53;2.85;;;2.50;;
57778;SDS011;43608;49.486;9.640;2023-04-25T03:05:24;3.70;;;2.80;;
57778;SDS011;43608;49.486;9.640;2023-04-25T03:05:54;3.20;;;2.70;;